sensor_id;sensor_type;location;lat;lon;timestamp;pressure;altitude;pressure_sealevel;temperature;humidity
65227;BME280;51805;49.012;12.104;2024-02-15T00:02:15;98346.94;;;22.44;49.39
65227;BME280;51805;49.012;12.104;2024-02-15T00:04:40;98336.91;;;22.34;49.27
65227;BME280;51805;49.012;12.104;2024-02-15T00:07:05;98339.34;;;22.36;49.60
65227;BME280;51805;49.012;12.104;2024-02-15T00:09:31;98342.06;;;22.41;49.20
65227;BME280;51805;49.012;12.104;2024-02-15T00:11:56;98331.50;;;22.39;49.26
65227;BME280;51805;49.012;12.104;2024-02-15T00:14:21;98298.69;;;22.11;49.49
65227;BME280;51805;49.012;12.104;2024-02-15T00:16:47;98316.06;;;22.30;49.42
65227;BME280;51805;49.012;12.104;2024-02-15T00:19:12;98337.69;;;22.35;49.40
65227;BME280;51805;49.012;12.104;2024-02-15T00:21:37;98335.28;;;22.28;49.76
65227;BME280;51805;49.012;12.104;2024-02-15T00:24:07;98310.06;;;22.13;49.61
65227;BME280;51805;49.012;12.104;2024-02-15T00:26:32;98327.13;;;22.18;49.65
65227;BME280;51805;49.012;12.104;2024-02-15T00:28:58;98317.13;;;22.24;49.32
65227;BME280;51805;49.012;12.104;2024-02-15T00:31:23;98340.13;;;22.36;49.51
65227;BME280;51805;49.012;12.104;2024-02-15T00:33:48;98346.66;;;22.35;49.44
65227;BME280;51805;49.012;12.104;2024-02-15T00:36:13;98346.09;;;22.33;49.47
65227;BME280;51805;49.012;12.104;2024-02-15T00:38:39;98328.22;;;22.22;49.69
65227;BME280;51805;49.012;12.104;2024-02-15T00:41:04;98338.53;;;22.35;49.45
65227;BME280;51805;49.012;12.104;2024-02-15T00:43:34;98320.09;;;22.27;49.37
65227;BME280;51805;49.012;12.104;2024-02-15T00:46:00;98321.75;;;22.28;49.39
65227;BME280;51805;49.012;12.104;2024-02-15T00:48:25;98319.56;;;22.25;49.38
65227;BME280;51805;49.012;12.104;2024-02-15T00:50:56;98324.19;;;22.30;49.48
65227;BME280;51805;49.012;12.104;2024-02-15T00:53:22;98332.03;;;22.31;49.33
65227;BME280;51805;49.012;12.104;2024-02-15T00:55:47;98302.22;;;22.11;49.65
65227;BME280;51805;49.012;12.104;2024-02-15T00:58:12;98332.84;;;22.27;49.68
65227;BME280;51805;49.012;12.104;2024-02-15T01:00:38;98335.28;;;22.28;49.47
65227;BME280;51805;49.012;12.104;2024-02-15T01:03:03;98326.31;;;22.23;49.53
65227;BME280;51805;49.012;12.104;2024-02-15T01:05:29;98303.81;;;22.07;49.64
65227;BME280;51805;49.012;12.104;2024-02-15T01:07:54;98335.25;;;22.23;49.72
65227;BME280;51805;49.012;12.104;2024-02-15T01:10:19;98310.88;;;22.08;49.52
65227;BME280;51805;49.012;12.104;2024-02-15T01:12:45;98328.22;;;22.22;49.58
65227;BME280;51805;49.012;12.104;2024-02-15T01:15:10;98329.28;;;22.21;49.71
65227;BME280;51805;49.012;12.104;2024-02-15T01:17:35;98327.69;;;22.25;49.41
65227;BME280;51805;49.012;12.104;2024-02-15T01:20:00;98320.38;;;22.21;49.79
65227;BME280;51805;49.012;12.104;2024-02-15T01:22:26;98322.50;;;22.14;49.71
65227;BME280;51805;49.012;12.104;2024-02-15T01:24:51;98326.59;;;22.21;49.81
65227;BME280;51805;49.012;12.104;2024-02-15T01:27:16;98330.13;;;22.22;49.65
65227;BME280;51805;49.012;12.104;2024-02-15T01:29:41;98329.56;;;22.25;49.53
65227;BME280;51805;49.012;12.104;2024-02-15T01:32:07;98319.56;;;22.20;49.78
65227;BME280;51805;49.012;12.104;2024-02-15T01:34:32;98322.81;;;22.17;49.78
65227;BME280;51805;49.012;12.104;2024-02-15T01:36:57;98279.72;;;21.96;49.79
65227;BME280;51805;49.012;12.104;2024-02-15T01:39:23;98314.13;;;22.15;49.68
65227;BME280;51805;49.012;12.104;2024-02-15T01:41:48;98317.09;;;22.14;50.05
65227;BME280;51805;49.012;12.104;2024-02-15T01:44:14;98329.81;;;22.18;49.94
65227;BME280;51805;49.012;12.104;2024-02-15T01:46:39;98316.00;;;22.15;49.90
65227;BME280;51805;49.012;12.104;2024-02-15T01:49:05;98316.81;;;22.15;49.96
65227;BME280;51805;49.012;12.104;2024-02-15T01:51:31;98311.97;;;22.17;49.71
65227;BME280;51805;49.012;12.104;2024-02-15T01:53:56;98323.31;;;22.09;49.74
65227;BME280;51805;49.012;12.104;2024-02-15T01:56:22;98334.69;;;22.11;49.96
65227;BME280;51805;49.012;12.104;2024-02-15T01:58:48;98330.91;;;22.12;50.07
65227;BME280;51805;49.012;12.104;2024-02-15T02:01:14;98298.94;;;21.94;49.89
65227;BME280;51805;49.012;12.104;2024-02-15T02:03:40;98320.06;;;22.12;49.92
65227;BME280;51805;49.012;12.104;2024-02-15T02:06:05;98312.50;;;22.09;50.17
65227;BME280;51805;49.012;12.104;2024-02-15T02:08:30;98306.53;;;22.02;50.45
65227;BME280;51805;49.012;12.104;2024-02-15T02:10:56;98310.88;;;22.08;50.00
65227;BME280;51805;49.012;12.104;2024-02-15T02:13:21;98311.13;;;22.12;49.80
65227;BME280;51805;49.012;12.104;2024-02-15T02:15:47;98284.03;;;21.92;50.00
65227;BME280;51805;49.012;12.104;2024-02-15T02:18:12;98310.59;;;22.10;50.12
65227;BME280;51805;49.012;12.104;2024-02-15T02:20:38;98317.34;;;22.07;50.31
65227;BME280;51805;49.012;12.104;2024-02-15T02:23:25;98304.38;;;22.09;50.29
65227;BME280;51805;49.012;12.104;2024-02-15T02:25:51;98302.19;;;22.06;49.94
65227;BME280;51805;49.012;12.104;2024-02-15T02:28:17;98274.56;;;21.89;50.32
65227;BME280;51805;49.012;12.104;2024-02-15T02:30:42;98302.75;;;22.03;50.13
65227;BME280;51805;49.012;12.104;2024-02-15T02:33:13;98301.91;;;22.03;50.22
65227;BME280;51805;49.012;12.104;2024-02-15T02:35:39;98306.53;;;22.07;50.07
65227;BME280;51805;49.012;12.104;2024-02-15T02:38:04;98300.56;;;22.00;50.09
65227;BME280;51805;49.012;12.104;2024-02-15T02:40:29;98294.88;;;22.02;50.28
65227;BME280;51805;49.012;12.104;2024-02-15T02:42:56;98281.88;;;21.99;50.16
65227;BME280;51805;49.012;12.104;2024-02-15T02:45:22;98298.16;;;22.04;50.20
65227;BME280;51805;49.012;12.104;2024-02-15T02:47:50;98291.34;;;21.96;50.33
65227;BME280;51805;49.012;12.104;2024-02-15T02:50:16;98301.66;;;21.99;50.30
65227;BME280;51805;49.012;12.104;2024-02-15T02:52:41;98301.63;;;21.94;50.33
65227;BME280;51805;49.012;12.104;2024-02-15T02:55:06;98252.84;;;21.69;50.37
65227;BME280;51805;49.012;12.104;2024-02-15T02:57:32;98291.63;;;21.90;50.32
65227;BME280;51805;49.012;12.104;2024-02-15T02:59:57;98292.69;;;21.94;50.31
65227;BME280;51805;49.012;12.104;2024-02-15T03:02:22;98302.69;;;21.93;50.49
65227;BME280;51805;49.012;12.104;2024-02-15T03:04:48;98301.09;;;21.92;50.45
65227;BME280;51805;49.012;12.104;2024-02-15T03:07:13;98284.31;;;21.85;50.51
65227;BME280;51805;49.012;12.104;2024-02-15T03:09:38;98287.56;;;21.92;50.42
65227;BME280;51805;49.012;12.104;2024-02-15T03:12:03;98278.88;;;21.85;50.50
65227;BME280;51805;49.012;12.104;2024-02-15T03:14:29;98287.00;;;21.90;50.53
65227;BME280;51805;49.012;12.104;2024-02-15T03:16:55;98302.16;;;21.96;50.73
65227;BME280;51805;49.012;12.104;2024-02-15T03:19:20;98296.75;;;21.96;50.19
65227;BME280;51805;49.012;12.104;2024-02-15T03:21:45;98271.56;;;21.76;50.56
65227;BME280;51805;49.012;12.104;2024-02-15T03:24:11;98299.19;;;21.93;50.69
65227;BME280;51805;49.012;12.104;2024-02-15T03:26:36;98288.34;;;21.88;50.56
65227;BME280;51805;49.012;12.104;2024-02-15T03:29:01;98263.66;;;21.69;50.52
65227;BME280;51805;49.012;12.104;2024-02-15T03:31:26;98294.59;;;21.88;50.76
65227;BME280;51805;49.012;12.104;2024-02-15T03:33:52;98295.66;;;21.92;50.80
65227;BME280;51805;49.012;12.104;2024-02-15T03:36:17;98295.91;;;21.86;50.67
65227;BME280;51805;49.012;12.104;2024-02-15T03:38:42;98273.91;;;21.67;51.02
65227;BME280;51805;49.012;12.104;2024-02-15T03:41:07;98296.44;;;21.83;50.69
65227;BME280;51805;49.012;12.104;2024-02-15T03:43:33;98302.16;;;21.86;50.77
65227;BME280;51805;49.012;12.104;2024-02-15T03:45:58;98313.53;;;21.88;50.44
65227;BME280;51805;49.012;12.104;2024-02-15T03:48:23;98269.59;;;21.66;50.91
65227;BME280;51805;49.012;12.104;2024-02-15T03:50:49;98299.72;;;21.85;50.69
65227;BME280;51805;49.012;12.104;2024-02-15T03:53:14;98290.25;;;21.82;50.73
65227;BME280;51805;49.012;12.104;2024-02-15T03:55:39;98285.88;;;21.76;51.00
65227;BME280;51805;49.012;12.104;2024-02-15T03:58:04;98310.53;;;21.85;50.83
65227;BME280;51805;49.012;12.104;2024-02-15T04:00:30;98274.44;;;21.64;50.78
65227;BME280;51805;49.012;12.104;2024-02-15T04:02:55;98313.50;;;21.83;50.79
65227;BME280;51805;49.012;12.104;2024-02-15T04:05:20;98302.59;;;21.73;50.88
65227;BME280;51805;49.012;12.104;2024-02-15T04:07:46;98310.25;;;21.81;51.07
65227;BME280;51805;49.012;12.104;2024-02-15T04:10:11;98297.72;;;21.70;50.77
65227;BME280;51805;49.012;12.104;2024-02-15T04:12:36;98304.03;;;21.76;50.97
65227;BME280;51805;49.012;12.104;2024-02-15T04:15:02;98307.28;;;21.83;50.71
65227;BME280;51805;49.012;12.104;2024-02-15T04:17:27;98303.97;;;21.71;51.10
65227;BME280;51805;49.012;12.104;2024-02-15T04:19:52;98306.41;;;21.72;50.83
65227;BME280;51805;49.012;12.104;2024-02-15T04:22:18;98301.56;;;21.74;50.92
65227;BME280;51805;49.012;12.104;2024-02-15T04:24:43;98308.34;;;21.77;50.97
65227;BME280;51805;49.012;12.104;2024-02-15T04:27:09;98310.25;;;21.81;50.66
65227;BME280;51805;49.012;12.104;2024-02-15T04:29:35;98302.94;;;21.77;50.97
65227;BME280;51805;49.012;12.104;2024-02-15T04:32:00;98302.94;;;21.82;50.87
65227;BME280;51805;49.012;12.104;2024-02-15T04:34:25;98299.97;;;21.78;51.21
65227;BME280;51805;49.012;12.104;2024-02-15T04:36:51;98283.94;;;21.72;50.93
65227;BME280;51805;49.012;12.104;2024-02-15T04:39:17;98263.09;;;21.57;51.16
65227;BME280;51805;49.012;12.104;2024-02-15T04:41:42;98277.44;;;21.68;51.02
65227;BME280;51805;49.012;12.104;2024-02-15T04:44:09;98296.41;;;21.73;51.12
65227;BME280;51805;49.012;12.104;2024-02-15T04:46:34;98286.38;;;21.73;50.94
65227;BME280;51805;49.012;12.104;2024-02-15T04:48:59;98302.59;;;21.73;51.05
65227;BME280;51805;49.012;12.104;2024-02-15T04:51:24;98302.66;;;21.78;51.01
65227;BME280;51805;49.012;12.104;2024-02-15T04:53:50;98273.38;;;21.60;51.06
65227;BME280;51805;49.012;12.104;2024-02-15T04:56:15;98309.44;;;21.76;51.33
65227;BME280;51805;49.012;12.104;2024-02-15T04:58:40;98308.56;;;21.70;51.30
65227;BME280;51805;49.012;12.104;2024-02-15T05:01:06;98295.03;;;21.70;51.35
65227;BME280;51805;49.012;12.104;2024-02-15T05:03:32;98310.50;;;21.75;51.13
65227;BME280;51805;49.012;12.104;2024-02-15T05:05:57;98292.94;;;21.77;50.77
65227;BME280;51805;49.012;12.104;2024-02-15T05:08:22;98294.56;;;21.83;50.74
65227;BME280;51805;49.012;12.104;2024-02-15T05:10:48;98295.13;;;21.85;50.84
65227;BME280;51805;49.012;12.104;2024-02-15T05:13:13;98292.69;;;21.84;50.87
65227;BME280;51805;49.012;12.104;2024-02-15T05:15:38;98302.44;;;21.90;51.02
65227;BME280;51805;49.012;12.104;2024-02-15T05:18:04;98309.19;;;21.92;50.86
65227;BME280;51805;49.012;12.104;2024-02-15T05:20:29;98289.69;;;21.80;51.08
65227;BME280;51805;49.012;12.104;2024-02-15T05:22:54;98291.31;;;21.86;51.10
65227;BME280;51805;49.012;12.104;2024-02-15T05:25:19;98307.59;;;21.91;51.05
65227;BME280;51805;49.012;12.104;2024-02-15T05:27:45;98314.06;;;21.90;51.05
65227;BME280;51805;49.012;12.104;2024-02-15T05:30:10;98281.56;;;21.80;50.97
65227;BME280;51805;49.012;12.104;2024-02-15T05:32:36;98304.34;;;21.94;51.11
65227;BME280;51805;49.012;12.104;2024-02-15T05:35:01;98296.75;;;21.86;50.90
65227;BME280;51805;49.012;12.104;2024-02-15T05:37:26;98280.22;;;21.83;51.02
65227;BME280;51805;49.012;12.104;2024-02-15T05:39:52;98291.63;;;21.90;51.27
65227;BME280;51805;49.012;12.104;2024-02-15T05:42:17;98300.84;;;21.99;51.17
65227;BME280;51805;49.012;12.104;2024-02-15T05:44:42;98288.66;;;21.91;50.87
65227;BME280;51805;49.012;12.104;2024-02-15T05:47:07;98292.97;;;21.92;50.86
65227;BME280;51805;49.012;12.104;2024-02-15T05:49:33;98297.56;;;21.97;51.01
65227;BME280;51805;49.012;12.104;2024-02-15T05:51:58;98291.09;;;21.93;51.10
65227;BME280;51805;49.012;12.104;2024-02-15T05:54:23;98295.69;;;21.97;51.07
65227;BME280;51805;49.012;12.104;2024-02-15T05:56:49;98271.28;;;21.77;50.83
65227;BME280;51805;49.012;12.104;2024-02-15T05:59:14;98277.81;;;21.86;50.95
65227;BME280;51805;49.012;12.104;2024-02-15T06:01:39;98305.72;;;22.07;51.01
65227;BME280;51805;49.012;12.104;2024-02-15T06:04:05;98262.38;;;21.82;51.11
65227;BME280;51805;49.012;12.104;2024-02-15T06:06:30;98294.34;;;22.05;50.91
65227;BME280;51805;49.012;12.104;2024-02-15T06:08:55;98263.72;;;21.79;51.17
65227;BME280;51805;49.012;12.104;2024-02-15T06:11:21;98299.72;;;21.95;51.18
65227;BME280;51805;49.012;12.104;2024-02-15T06:13:46;98309.75;;;22.04;50.80
65227;BME280;51805;49.012;12.104;2024-02-15T06:16:11;98322.50;;;22.09;50.92
65227;BME280;51805;49.012;12.104;2024-02-15T06:18:36;98314.38;;;22.09;51.21
65227;BME280;51805;49.012;12.104;2024-02-15T06:21:02;98308.16;;;22.03;51.02
65227;BME280;51805;49.012;12.104;2024-02-15T06:23:27;98317.09;;;22.09;51.08
65227;BME280;51805;49.012;12.104;2024-02-15T06:25:54;98307.06;;;22.09;50.85
65227;BME280;51805;49.012;12.104;2024-02-15T06:28:20;98307.34;;;22.08;50.93
65227;BME280;51805;49.012;12.104;2024-02-15T06:30:46;98316.53;;;22.12;50.94
65227;BME280;51805;49.012;12.104;2024-02-15T06:33:11;98307.91;;;22.10;50.92
65227;BME280;51805;49.012;12.104;2024-02-15T06:35:37;98317.38;;;22.12;50.89
65227;BME280;51805;49.012;12.104;2024-02-15T06:38:02;98269.94;;;21.85;50.83
65227;BME280;51805;49.012;12.104;2024-02-15T06:40:28;98286.22;;;21.90;51.05
65227;BME280;51805;49.012;12.104;2024-02-15T06:42:53;98286.75;;;21.87;51.14
65227;BME280;51805;49.012;12.104;2024-02-15T06:45:18;98302.16;;;21.96;50.97
65227;BME280;51805;49.012;12.104;2024-02-15T06:47:44;98328.72;;;22.09;51.00
65227;BME280;51805;49.012;12.104;2024-02-15T06:50:12;98323.31;;;22.04;51.41
65227;BME280;51805;49.012;12.104;2024-02-15T06:52:38;98305.69;;;21.92;51.87
65227;BME280;51805;49.012;12.104;2024-02-15T06:55:05;98329.81;;;22.03;51.78
65227;BME280;51805;49.012;12.104;2024-02-15T06:57:30;98328.19;;;22.02;52.10
65227;BME280;51805;49.012;12.104;2024-02-15T06:59:55;98325.47;;;22.02;52.31
65227;BME280;51805;49.012;12.104;2024-02-15T07:02:21;98282.63;;;21.74;52.39
65227;BME280;51805;49.012;12.104;2024-02-15T07:04:46;98304.31;;;21.84;52.41
65227;BME280;51805;49.012;12.104;2024-02-15T07:07:11;98328.72;;;22.04;52.07
65227;BME280;51805;49.012;12.104;2024-02-15T07:09:36;98342.00;;;22.11;52.12
65227;BME280;51805;49.012;12.104;2024-02-15T07:12:02;98339.03;;;22.12;51.98
65227;BME280;51805;49.012;12.104;2024-02-15T07:14:27;98338.47;;;22.10;51.94
65227;BME280;51805;49.012;12.104;2024-02-15T07:16:52;98337.13;;;22.08;51.99
65227;BME280;51805;49.012;12.104;2024-02-15T07:19:18;98342.00;;;22.11;52.26
65227;BME280;51805;49.012;12.104;2024-02-15T07:21:43;98334.16;;;22.09;51.98
65227;BME280;51805;49.012;12.104;2024-02-15T07:24:09;98325.47;;;22.07;51.71
65227;BME280;51805;49.012;12.104;2024-02-15T07:26:34;98327.66;;;22.05;51.42
65227;BME280;51805;49.012;12.104;2024-02-15T07:29:00;98338.19;;;22.12;51.47
65227;BME280;51805;49.012;12.104;2024-02-15T07:31:29;98338.50;;;22.15;51.64
65227;BME280;51805;49.012;12.104;2024-02-15T07:33:54;98318.72;;;22.05;51.58
65227;BME280;51805;49.012;12.104;2024-02-15T07:36:20;98340.38;;;22.15;51.52
65227;BME280;51805;49.012;12.104;2024-02-15T07:38:46;98340.09;;;22.16;51.38
65227;BME280;51805;49.012;12.104;2024-02-15T07:41:11;98296.75;;;21.86;51.47
65227;BME280;51805;49.012;12.104;2024-02-15T07:43:36;98316.25;;;21.98;51.45
65227;BME280;51805;49.012;12.104;2024-02-15T07:46:01;98315.72;;;22.01;51.26
65227;BME280;51805;49.012;12.104;2024-02-15T07:48:27;98299.47;;;21.91;51.13
65227;BME280;51805;49.012;12.104;2024-02-15T07:50:52;98309.78;;;21.99;51.20
65227;BME280;51805;49.012;12.104;2024-02-15T07:53:18;98317.91;;;22.09;51.16
65227;BME280;51805;49.012;12.104;2024-02-15T07:55:43;98322.22;;;22.10;51.03
65227;BME280;51805;49.012;12.104;2024-02-15T07:58:08;98310.84;;;22.03;51.16
65227;BME280;51805;49.012;12.104;2024-02-15T08:00:34;98337.13;;;22.18;50.95
65227;BME280;51805;49.012;12.104;2024-02-15T08:02:59;98340.69;;;22.23;50.84
65227;BME280;51805;49.012;12.104;2024-02-15T08:05:24;98328.78;;;22.19;50.87
65227;BME280;51805;49.012;12.104;2024-02-15T08:07:49;98320.88;;;22.18;50.89
65227;BME280;51805;49.012;12.104;2024-02-15T08:10:15;98330.94;;;22.22;50.97
65227;BME280;51805;49.012;12.104;2024-02-15T08:12:45;98326.84;;;22.20;51.17
65227;BME280;51805;49.012;12.104;2024-02-15T08:15:11;98327.44;;;22.27;50.82
65227;BME280;51805;49.012;12.104;2024-02-15T08:17:46;98304.91;;;22.16;50.85
65227;BME280;51805;49.012;12.104;2024-02-15T08:20:11;98317.41;;;22.22;50.81
65227;BME280;51805;49.012;12.104;2024-02-15T08:22:38;98313.06;;;22.26;50.78
65227;BME280;51805;49.012;12.104;2024-02-15T08:25:03;98297.34;;;22.18;50.74
65227;BME280;51805;49.012;12.104;2024-02-15T08:27:29;98301.16;;;22.22;50.74
65227;BME280;51805;49.012;12.104;2024-02-15T08:29:54;98309.28;;;22.22;50.83
65227;BME280;51805;49.012;12.104;2024-02-15T08:32:19;98300.88;;;22.24;50.79
65227;BME280;51805;49.012;12.104;2024-02-15T08:34:44;98300.31;;;22.32;50.69
65227;BME280;51805;49.012;12.104;2024-02-15T08:37:10;98298.72;;;22.31;50.72
65227;BME280;51805;49.012;12.104;2024-02-15T08:39:35;98299.53;;;22.31;50.73
65227;BME280;51805;49.012;12.104;2024-02-15T08:42:00;98297.09;;;22.30;50.44
65227;BME280;51805;49.012;12.104;2024-02-15T08:44:25;98266.75;;;22.18;50.48
65227;BME280;51805;49.012;12.104;2024-02-15T08:46:51;98286.81;;;22.27;50.55
65227;BME280;51805;49.012;12.104;2024-02-15T08:49:16;98249.69;;;22.07;50.50
65227;BME280;51805;49.012;12.104;2024-02-15T08:51:41;98278.41;;;22.33;50.54
65227;BME280;51805;49.012;12.104;2024-02-15T08:54:07;98269.47;;;22.28;50.50
65227;BME280;51805;49.012;12.104;2024-02-15T08:56:35;98273.53;;;22.35;50.52
65227;BME280;51805;49.012;12.104;2024-02-15T08:59:00;98265.16;;;22.27;50.44
65227;BME280;51805;49.012;12.104;2024-02-15T09:01:25;98268.66;;;22.27;50.38
65227;BME280;51805;49.012;12.104;2024-02-15T09:03:51;98287.09;;;22.40;50.54
65227;BME280;51805;49.012;12.104;2024-02-15T09:06:16;98279.78;;;22.36;50.58
65227;BME280;51805;49.012;12.104;2024-02-15T09:08:41;98284.38;;;22.45;50.38
65227;BME280;51805;49.012;12.104;2024-02-15T09:11:07;98268.13;;;22.35;50.36
65227;BME280;51805;49.012;12.104;2024-02-15T09:13:32;98254.59;;;22.20;50.52
65227;BME280;51805;49.012;12.104;2024-02-15T09:15:57;98277.34;;;22.39;50.56
65227;BME280;51805;49.012;12.104;2024-02-15T09:18:22;98259.47;;;22.28;50.38
65227;BME280;51805;49.012;12.104;2024-02-15T09:20:48;98240.50;;;22.18;50.27
65227;BME280;51805;49.012;12.104;2024-02-15T09:23:14;98261.09;;;22.34;50.39
65227;BME280;51805;49.012;12.104;2024-02-15T09:25:39;98262.41;;;22.32;50.29
65227;BME280;51805;49.012;12.104;2024-02-15T09:28:04;98261.63;;;22.41;50.17
65227;BME280;51805;49.012;12.104;2024-02-15T09:30:30;98262.72;;;22.40;50.27
65227;BME280;51805;49.012;12.104;2024-02-15T09:32:55;98251.88;;;22.35;50.24
65227;BME280;51805;49.012;12.104;2024-02-15T09:35:21;98225.88;;;22.24;50.07
65227;BME280;51805;49.012;12.104;2024-02-15T09:37:48;98243.75;;;22.35;50.06
65227;BME280;51805;49.012;12.104;2024-02-15T09:40:14;98273.28;;;22.57;50.08
65227;BME280;51805;49.012;12.104;2024-02-15T09:42:40;98276.81;;;22.57;50.11
65227;BME280;51805;49.012;12.104;2024-02-15T09:45:06;98255.09;;;22.47;50.11
65227;BME280;51805;49.012;12.104;2024-02-15T09:47:35;98248.63;;;22.43;50.22
65227;BME280;51805;49.012;12.104;2024-02-15T09:50:00;98238.06;;;22.37;50.24
65227;BME280;51805;49.012;12.104;2024-02-15T09:52:27;98272.47;;;22.61;50.08
65227;BME280;51805;49.012;12.104;2024-02-15T09:54:54;98260.03;;;22.55;50.20
65227;BME280;51805;49.012;12.104;2024-02-15T09:57:20;98266.00;;;22.57;50.20
65227;BME280;51805;49.012;12.104;2024-02-15T09:59:45;98236.97;;;22.38;50.08
65227;BME280;51805;49.012;12.104;2024-02-15T10:02:12;98225.63;;;22.36;49.90
65227;BME280;51805;49.012;12.104;2024-02-15T10:04:39;98259.47;;;22.63;49.94
65227;BME280;51805;49.012;12.104;2024-02-15T10:07:04;98223.69;;;22.36;50.10
65227;BME280;51805;49.012;12.104;2024-02-15T10:09:30;98256.22;;;22.56;50.00
65227;BME280;51805;49.012;12.104;2024-02-15T10:11:57;98270.31;;;22.63;50.01
65227;BME280;51805;49.012;12.104;2024-02-15T10:14:24;98240.78;;;22.52;50.12
65227;BME280;51805;49.012;12.104;2024-02-15T10:16:49;98233.47;;;22.42;50.13
65227;BME280;51805;49.012;12.104;2024-02-15T10:19:15;98245.09;;;22.58;49.88
65227;BME280;51805;49.012;12.104;2024-02-15T10:21:40;98237.25;;;22.46;50.01
65227;BME280;51805;49.012;12.104;2024-02-15T10:24:06;98262.19;;;22.63;50.00
65227;BME280;51805;49.012;12.104;2024-02-15T10:26:32;98267.59;;;22.68;50.00
65227;BME280;51805;49.012;12.104;2024-02-15T10:29:11;98261.38;;;22.63;49.93
65227;BME280;51805;49.012;12.104;2024-02-15T10:31:38;98228.03;;;22.47;49.84
65227;BME280;51805;49.012;12.104;2024-02-15T10:34:05;98261.38;;;22.68;49.94
65227;BME280;51805;49.012;12.104;2024-02-15T10:36:31;98257.03;;;22.67;49.98
65227;BME280;51805;49.012;12.104;2024-02-15T10:39:11;98244.59;;;22.61;49.93
65227;BME280;51805;49.012;12.104;2024-02-15T10:41:38;98227.78;;;22.54;49.84
65227;BME280;51805;49.012;12.104;2024-02-15T10:44:04;98235.66;;;22.65;49.83
65227;BME280;51805;49.012;12.104;2024-02-15T10:46:30;98249.16;;;22.70;49.96
65227;BME280;51805;49.012;12.104;2024-02-15T10:48:55;98243.22;;;22.68;50.01
65227;BME280;51805;49.012;12.104;2024-02-15T10:51:21;98235.09;;;22.68;49.78
65227;BME280;51805;49.012;12.104;2024-02-15T10:53:58;98215.84;;;22.60;49.93
65227;BME280;51805;49.012;12.104;2024-02-15T10:56:33;98219.13;;;22.62;49.95
65227;BME280;51805;49.012;12.104;2024-02-15T11:01:29;98193.13;;;22.51;49.81
65227;BME280;51805;49.012;12.104;2024-02-15T11:04:00;98212.06;;;22.66;49.93
65227;BME280;51805;49.012;12.104;2024-02-15T11:06:30;98216.66;;;22.70;49.97
65227;BME280;51805;49.012;12.104;2024-02-15T11:08:58;98192.03;;;22.62;49.92
65227;BME280;51805;49.012;12.104;2024-02-15T11:11:24;98205.28;;;22.68;49.88
65227;BME280;51805;49.012;12.104;2024-02-15T11:13:50;98187.94;;;22.64;49.89
65227;BME280;51805;49.012;12.104;2024-02-15T11:16:42;98186.34;;;22.63;49.85
65227;BME280;51805;49.012;12.104;2024-02-15T11:19:07;98194.47;;;22.68;49.84
65227;BME280;51805;49.012;12.104;2024-02-15T11:21:54;98194.69;;;22.72;49.93
65227;BME280;51805;49.012;12.104;2024-02-15T11:24:30;98198.22;;;22.72;49.87
65227;BME280;51805;49.012;12.104;2024-02-15T11:26:59;98184.16;;;22.65;50.05
65227;BME280;51805;49.012;12.104;2024-02-15T11:29:56;98179.53;;;22.71;49.84
65227;BME280;51805;49.012;12.104;2024-02-15T11:32:35;98161.94;;;22.63;49.91
65227;BME280;51805;49.012;12.104;2024-02-15T11:35:07;98165.16;;;22.70;49.81
65227;BME280;51805;49.012;12.104;2024-02-15T11:40:20;98107.81;;;22.33;49.84
65227;BME280;51805;49.012;12.104;2024-02-15T11:42:46;98146.78;;;22.62;49.83
65227;BME280;51805;49.012;12.104;2024-02-15T11:45:12;98165.44;;;22.69;49.84
65227;BME280;51805;49.012;12.104;2024-02-15T11:47:39;98152.44;;;22.66;49.99
65227;BME280;51805;49.012;12.104;2024-02-15T11:50:07;98149.50;;;22.62;49.87
65227;BME280;51805;49.012;12.104;2024-02-15T11:52:33;98118.63;;;22.43;49.95
65227;BME280;51805;49.012;12.104;2024-02-15T11:55:07;98130.00;;;22.60;49.83
65227;BME280;51805;49.012;12.104;2024-02-15T11:57:32;98103.22;;;22.44;49.90
65227;BME280;51805;49.012;12.104;2024-02-15T11:59:58;98133.50;;;22.66;50.10
65227;BME280;51805;49.012;12.104;2024-02-15T12:02:23;98127.00;;;22.62;49.82
65227;BME280;51805;49.012;12.104;2024-02-15T12:04:49;98100.47;;;22.49;49.75
65227;BME280;51805;49.012;12.104;2024-02-15T12:07:15;98089.38;;;22.45;49.71
65227;BME280;51805;49.012;12.104;2024-02-15T12:09:40;98129.72;;;22.67;49.92
65227;BME280;51805;49.012;12.104;2024-02-15T12:12:05;98086.69;;;22.40;49.91
65227;BME280;51805;49.012;12.104;2024-02-15T12:14:31;98117.50;;;22.69;49.95
65227;BME280;51805;49.012;12.104;2024-02-15T12:17:02;98120.50;;;22.68;49.83
65227;BME280;51805;49.012;12.104;2024-02-15T12:19:28;98112.63;;;22.66;49.72
65227;BME280;51805;49.012;12.104;2024-02-15T12:21:54;98098.81;;;22.63;49.65
65227;BME280;51805;49.012;12.104;2024-02-15T12:24:21;98082.34;;;22.54;49.87
65227;BME280;51805;49.012;12.104;2024-02-15T12:26:47;98076.38;;;22.47;49.82
65227;BME280;51805;49.012;12.104;2024-02-15T12:29:17;98061.22;;;22.36;49.71
65227;BME280;51805;49.012;12.104;2024-02-15T12:31:43;98104.50;;;22.71;49.92
65227;BME280;51805;49.012;12.104;2024-02-15T12:34:08;98102.06;;;22.65;49.84
65227;BME280;51805;49.012;12.104;2024-02-15T12:36:34;98108.28;;;22.70;49.82
65227;BME280;51805;49.012;12.104;2024-02-15T12:39:01;98050.94;;;22.38;49.87
65227;BME280;51805;49.012;12.104;2024-02-15T12:41:26;98095.81;;;22.69;49.96
65227;BME280;51805;49.012;12.104;2024-02-15T12:43:52;98094.44;;;22.72;49.88
65227;BME280;51805;49.012;12.104;2024-02-15T12:46:19;98041.75;;;22.34;49.85
65227;BME280;51805;49.012;12.104;2024-02-15T12:48:44;98057.69;;;22.51;49.66
65227;BME280;51805;49.012;12.104;2024-02-15T12:51:14;98059.06;;;22.48;49.97